sensor_id;sensor_type;location;lat;lon;timestamp;pressure;altitude;pressure_sealevel;temperature
29701;BMP280;57917;51.380;-0.176;2022-11-30T00:05:04;101978.09;;;8.42
29701;BMP280;57917;51.380;-0.176;2022-11-30T00:10:53;101972.19;;;8.69
29701;BMP280;57917;51.380;-0.176;2022-11-30T00:16:42;101964.13;;;8.41
29701;BMP280;57917;51.380;-0.176;2022-11-30T00:22:29;101969.44;;;8.76
29701;BMP280;57917;51.380;-0.176;2022-11-30T00:28:16;101966.44;;;8.61
29701;BMP280;57917;51.380;-0.176;2022-11-30T00:34:03;101963.38;;;8.87
29701;BMP280;57917;51.380;-0.176;2022-11-30T00:39:50;101959.41;;;9.13
29701;BMP280;57917;51.380;-0.176;2022-11-30T00:45:36;101961.97;;;8.85
29701;BMP280;57917;51.380;-0.176;2022-11-30T00:51:23;101971.63;;;8.91
29701;BMP280;57917;51.380;-0.176;2022-11-30T00:57:10;101968.50;;;9.28
29701;BMP280;57917;51.380;-0.176;2022-11-30T01:02:58;101964.25;;;9.39
29701;BMP280;57917;51.380;-0.176;2022-11-30T01:08:45;101960.22;;;9.36
29701;BMP280;57917;51.380;-0.176;2022-11-30T01:14:33;101951.56;;;9.41
29701;BMP280;57917;51.380;-0.176;2022-11-30T01:20:20;101953.97;;;9.54
29701;BMP280;57917;51.380;-0.176;2022-11-30T01:26:07;101950.69;;;9.35
29701;BMP280;57917;51.380;-0.176;2022-11-30T01:31:54;101956.66;;;9.19
29701;BMP280;57917;51.380;-0.176;2022-11-30T01:37:41;101968.84;;;8.86
29701;BMP280;57917;51.380;-0.176;2022-11-30T01:43:46;101977.50;;;8.81
29701;BMP280;57917;51.380;-0.176;2022-11-30T01:49:37;101978.03;;;8.95
29701;BMP280;57917;51.380;-0.176;2022-11-30T01:55:36;101963.78;;;8.84
29701;BMP280;57917;51.380;-0.176;2022-11-30T02:01:25;101965.38;;;8.50
29701;BMP280;57917;51.380;-0.176;2022-11-30T02:07:12;101966.44;;;8.61
29701;BMP280;57917;51.380;-0.176;2022-11-30T02:18:58;101972.88;;;8.88
29701;BMP280;57917;51.380;-0.176;2022-11-30T02:30:51;101970.91;;;8.84
29701;BMP280;57917;51.380;-0.176;2022-11-30T02:36:39;101978.56;;;8.50
29701;BMP280;57917;51.380;-0.176;2022-11-30T02:42:27;101994.97;;;8.41
29701;BMP280;57917;51.380;-0.176;2022-11-30T02:48:17;101988.47;;;8.43
29701;BMP280;57917;51.380;-0.176;2022-11-30T02:54:11;101979.91;;;8.83
29701;BMP280;57917;51.380;-0.176;2022-11-30T02:59:59;101990.91;;;8.80
29701;BMP280;57917;51.380;-0.176;2022-11-30T03:05:47;101984.03;;;8.79
29701;BMP280;57917;51.380;-0.176;2022-11-30T03:11:33;101987.47;;;8.91
29701;BMP280;57917;51.380;-0.176;2022-11-30T03:17:20;101975.66;;;8.93
29701;BMP280;57917;51.380;-0.176;2022-11-30T03:23:07;101977.22;;;8.94
29701;BMP280;57917;51.380;-0.176;2022-11-30T03:28:54;101986.00;;;9.06
29701;BMP280;57917;51.380;-0.176;2022-11-30T03:34:41;101974.72;;;8.99
29701;BMP280;57917;51.380;-0.176;2022-11-30T03:40:28;101982.06;;;8.86
29701;BMP280;57917;51.380;-0.176;2022-11-30T03:46:15;101980.81;;;8.88
29701;BMP280;57917;51.380;-0.176;2022-11-30T03:52:02;101990.72;;;8.40
29701;BMP280;57917;51.380;-0.176;2022-11-30T03:57:49;101997.00;;;8.68
29701;BMP280;57917;51.380;-0.176;2022-11-30T04:03:37;101994.31;;;8.57
29701;BMP280;57917;51.380;-0.176;2022-11-30T04:09:23;102004.28;;;8.55
29701;BMP280;57917;51.380;-0.176;2022-11-30T04:15:10;101997.53;;;8.18
29701;BMP280;57917;51.380;-0.176;2022-11-30T04:20:58;102002.19;;;8.34
29701;BMP280;57917;51.380;-0.176;2022-11-30T04:26:45;102004.03;;;8.45
29701;BMP280;57917;51.380;-0.176;2022-11-30T04:32:32;101998.78;;;8.15
29701;BMP280;57917;51.380;-0.176;2022-11-30T04:38:19;102002.22;;;8.16
29701;BMP280;57917;51.380;-0.176;2022-11-30T04:44:06;102009.75;;;8.30
29701;BMP280;57917;51.380;-0.176;2022-11-30T04:49:52;102013.91;;;8.08
29701;BMP280;57917;51.380;-0.176;2022-11-30T04:55:39;102022.31;;;8.17
29701;BMP280;57917;51.380;-0.176;2022-11-30T05:01:26;102023.75;;;8.31
29701;BMP280;57917;51.380;-0.176;2022-11-30T05:07:13;102023.75;;;8.31
29701;BMP280;57917;51.380;-0.176;2022-11-30T05:13:00;102011.78;;;8.58
29701;BMP280;57917;51.380;-0.176;2022-11-30T05:18:47;102008.25;;;8.87
29701;BMP280;57917;51.380;-0.176;2022-11-30T05:24:34;102012.50;;;8.88
29701;BMP280;57917;51.380;-0.176;2022-11-30T05:30:20;102009.19;;;8.93
29701;BMP280;57917;51.380;-0.176;2022-11-30T05:36:07;102025.16;;;8.45
29701;BMP280;57917;51.380;-0.176;2022-11-30T05:41:56;102033.28;;;8.14
29701;BMP280;57917;51.380;-0.176;2022-11-30T05:47:43;102048.25;;;8.20
29701;BMP280;57917;51.380;-0.176;2022-11-30T05:53:30;102057.34;;;8.24
29701;BMP280;57917;51.380;-0.176;2022-11-30T05:59:16;102076.69;;;8.47
29701;BMP280;57917;51.380;-0.176;2022-11-30T06:05:03;102063.44;;;8.54
29701;BMP280;57917;51.380;-0.176;2022-11-30T06:10:50;102054.84;;;8.70
29701;BMP280;57917;51.380;-0.176;2022-11-30T06:16:38;102054.25;;;8.68
29701;BMP280;57917;51.380;-0.176;2022-11-30T06:22:25;102059.34;;;8.81
29701;BMP280;57917;51.380;-0.176;2022-11-30T06:28:12;102057.84;;;8.85
29701;BMP280;57917;51.380;-0.176;2022-11-30T06:33:59;102063.25;;;8.79
29701;BMP280;57917;51.380;-0.176;2022-11-30T06:39:45;102055.66;;;8.82
29701;BMP280;57917;51.380;-0.176;2022-11-30T06:45:52;102063.78;;;8.69
29701;BMP280;57917;51.380;-0.176;2022-11-30T06:51:39;102061.72;;;8.71
29701;BMP280;57917;51.380;-0.176;2022-11-30T06:57:29;102067.13;;;8.76
29701;BMP280;57917;51.380;-0.176;2022-11-30T07:03:16;102071.25;;;8.60
29701;BMP280;57917;51.380;-0.176;2022-11-30T07:09:03;102087.34;;;8.41
29701;BMP280;57917;51.380;-0.176;2022-11-30T07:14:51;102094.44;;;8.40
29701;BMP280;57917;51.380;-0.176;2022-11-30T07:20:41;102112.06;;;8.58
29701;BMP280;57917;51.380;-0.176;2022-11-30T07:26:28;102104.47;;;8.50
29701;BMP280;57917;51.380;-0.176;2022-11-30T07:32:15;102134.41;;;8.73
29701;BMP280;57917;51.380;-0.176;2022-11-30T07:38:02;102135.03;;;8.57
29701;BMP280;57917;51.380;-0.176;2022-11-30T07:43:55;102131.91;;;8.90
29701;BMP280;57917;51.380;-0.176;2022-11-30T07:49:49;102132.00;;;8.72
29701;BMP280;57917;51.380;-0.176;2022-11-30T08:02:42;102168.09;;;8.60
29701;BMP280;57917;51.380;-0.176;2022-11-30T08:08:31;102162.94;;;8.65
29701;BMP280;57917;51.380;-0.176;2022-11-30T08:21:11;102185.56;;;8.43
29701;BMP280;57917;51.380;-0.176;2022-11-30T08:27:08;102181.81;;;8.50
29701;BMP280;57917;51.380;-0.176;2022-11-30T08:33:02;102191.84;;;8.42
29701;BMP280;57917;51.380;-0.176;2022-11-30T08:38:58;102190.56;;;8.33
29701;BMP280;57917;51.380;-0.176;2022-11-30T08:45:01;102189.09;;;8.37
29701;BMP280;57917;51.380;-0.176;2022-11-30T08:50:49;102193.19;;;8.51
29701;BMP280;57917;51.380;-0.176;2022-11-30T08:56:37;102201.91;;;8.51
29701;BMP280;57917;51.380;-0.176;2022-11-30T09:02:28;102206.06;;;8.59
29701;BMP280;57917;51.380;-0.176;2022-11-30T09:08:16;102206.53;;;8.56
29701;BMP280;57917;51.380;-0.176;2022-11-30T09:14:03;102207.09;;;8.58
29701;BMP280;57917;51.380;-0.176;2022-11-30T09:19:50;102201.50;;;8.66
29701;BMP280;57917;51.380;-0.176;2022-11-30T09:25:38;102217.91;;;8.86
29701;BMP280;57917;51.380;-0.176;2022-11-30T09:31:25;102206.19;;;8.82
29701;BMP280;57917;51.380;-0.176;2022-11-30T09:37:12;102206.41;;;8.33
29701;BMP280;57917;51.380;-0.176;2022-11-30T09:49:09;102226.00;;;8.55
29701;BMP280;57917;51.380;-0.176;2022-11-30T09:55:01;102234.38;;;8.70
29701;BMP280;57917;51.380;-0.176;2022-11-30T10:00:51;102238.44;;;9.02
29701;BMP280;57917;51.380;-0.176;2022-11-30T10:06:50;102232.59;;;8.82
29701;BMP280;57917;51.380;-0.176;2022-11-30T10:12:41;102239.50;;;8.83
29701;BMP280;57917;51.380;-0.176;2022-11-30T10:30:35;102229.81;;;9.07
29701;BMP280;57917;51.380;-0.176;2022-11-30T10:36:32;102235.13;;;8.41
29701;BMP280;57917;51.380;-0.176;2022-11-30T10:48:31;102233.38;;;8.53
29701;BMP280;57917;51.380;-0.176;2022-11-30T10:54:21;102220.44;;;8.45
29701;BMP280;57917;51.380;-0.176;2022-11-30T11:00:13;102222.47;;;8.31
29701;BMP280;57917;51.380;-0.176;2022-11-30T11:06:21;102226.28;;;8.65
29701;BMP280;57917;51.380;-0.176;2022-11-30T11:12:19;102226.22;;;8.71
29701;BMP280;57917;51.380;-0.176;2022-11-30T11:24:08;102223.75;;;9.06
29701;BMP280;57917;51.380;-0.176;2022-11-30T11:30:02;102238.06;;;8.99
29701;BMP280;57917;51.380;-0.176;2022-11-30T11:35:55;102229.38;;;8.80
29701;BMP280;57917;51.380;-0.176;2022-11-30T11:41:58;102218.56;;;9.00
29701;BMP280;57917;51.380;-0.176;2022-11-30T11:47:46;102212.56;;;8.93
29701;BMP280;57917;51.380;-0.176;2022-11-30T11:53:49;102220.00;;;9.25
29701;BMP280;57917;51.380;-0.176;2022-11-30T12:05:52;102231.00;;;9.11
29701;BMP280;57917;51.380;-0.176;2022-11-30T12:11:43;102232.16;;;8.67
29701;BMP280;57917;51.380;-0.176;2022-11-30T12:37:00;102240.69;;;9.28
29701;BMP280;57917;51.380;-0.176;2022-11-30T12:43:22;102247.72;;;9.05
29701;BMP280;57917;51.380;-0.176;2022-11-30T13:07:42;102245.31;;;9.03
29701;BMP280;57917;51.380;-0.176;2022-11-30T13:13:34;102246.69;;;8.76
29701;BMP280;57917;51.380;-0.176;2022-11-30T13:19:44;102239.38;;;9.08
29701;BMP280;57917;51.380;-0.176;2022-11-30T13:32:07;102242.72;;;8.67
29701;BMP280;57917;51.380;-0.176;2022-11-30T13:38:18;102259.16;;;8.87
29701;BMP280;57917;51.380;-0.176;2022-11-30T13:44:41;102257.84;;;8.60
29701;BMP280;57917;51.380;-0.176;2022-11-30T13:50:36;102265.13;;;8.94
29701;BMP280;57917;51.380;-0.176;2022-11-30T13:56:32;102264.47;;;8.99
29701;BMP280;57917;51.380;-0.176;2022-11-30T14:08:39;102261.00;;;9.16
29701;BMP280;57917;51.380;-0.176;2022-11-30T14:14:44;102262.66;;;9.29
29701;BMP280;57917;51.380;-0.176;2022-11-30T14:26:43;102267.19;;;9.10
29701;BMP280;57917;51.380;-0.176;2022-11-30T14:32:41;102266.59;;;9.08
29701;BMP280;57917;51.380;-0.176;2022-11-30T14:38:29;102253.22;;;9.03
29701;BMP280;57917;51.380;-0.176;2022-11-30T14:44:17;102258.69;;;9.08
29701;BMP280;57917;51.380;-0.176;2022-11-30T14:50:20;102252.47;;;9.14
29701;BMP280;57917;51.380;-0.176;2022-11-30T14:56:19;102256.19;;;9.25
29701;BMP280;57917;51.380;-0.176;2022-11-30T15:02:38;102254.41;;;9.07
29701;BMP280;57917;51.380;-0.176;2022-11-30T15:08:37;102255.47;;;8.88
29701;BMP280;57917;51.380;-0.176;2022-11-30T15:14:24;102278.59;;;8.74
29701;BMP280;57917;51.380;-0.176;2022-11-30T15:20:28;102263.97;;;8.60
29701;BMP280;57917;51.380;-0.176;2022-11-30T15:26:27;102273.59;;;8.48
29701;BMP280;57917;51.380;-0.176;2022-11-30T15:32:22;102266.66;;;8.54
29701;BMP280;57917;51.380;-0.176;2022-11-30T15:38:12;102270.38;;;8.46
29701;BMP280;57917;51.380;-0.176;2022-11-30T15:44:03;102268.91;;;8.50
29701;BMP280;57917;51.380;-0.176;2022-11-30T15:49:57;102263.88;;;8.31
29701;BMP280;57917;51.380;-0.176;2022-11-30T15:55:48;102262.22;;;8.30
29701;BMP280;57917;51.380;-0.176;2022-11-30T16:01:58;102273.00;;;8.28
29701;BMP280;57917;51.380;-0.176;2022-11-30T16:08:02;102269.13;;;8.31
29701;BMP280;57917;51.380;-0.176;2022-11-30T16:13:54;102274.91;;;8.21
29701;BMP280;57917;51.380;-0.176;2022-11-30T16:19:41;102269.88;;;8.13
29701;BMP280;57917;51.380;-0.176;2022-11-30T16:25:33;102284.00;;;8.01
29701;BMP280;57917;51.380;-0.176;2022-11-30T16:31:21;102287.97;;;7.92
29701;BMP280;57917;51.380;-0.176;2022-11-30T16:37:09;102293.56;;;8.02
29701;BMP280;57917;51.380;-0.176;2022-11-30T16:42:56;102308.13;;;7.80
29701;BMP280;57917;51.380;-0.176;2022-11-30T16:48:44;102308.63;;;7.64
29701;BMP280;57917;51.380;-0.176;2022-11-30T16:54:31;102316.50;;;7.70
29701;BMP280;57917;51.380;-0.176;2022-11-30T17:00:20;102315.00;;;7.49
29701;BMP280;57917;51.380;-0.176;2022-11-30T17:06:12;102320.03;;;7.57
29701;BMP280;57917;51.380;-0.176;2022-11-30T17:12:01;102321.72;;;7.45
29701;BMP280;57917;51.380;-0.176;2022-11-30T17:17:48;102331.75;;;7.62
29701;BMP280;57917;51.380;-0.176;2022-11-30T17:23:36;102331.81;;;7.48
29701;BMP280;57917;51.380;-0.176;2022-11-30T17:29:25;102346.78;;;7.54
29701;BMP280;57917;51.380;-0.176;2022-11-30T17:35:12;102351.16;;;7.36
29701;BMP280;57917;51.380;-0.176;2022-11-30T17:41:02;102359.72;;;7.18
29701;BMP280;57917;51.380;-0.176;2022-11-30T17:46:49;102359.13;;;7.16
29701;BMP280;57917;51.380;-0.176;2022-11-30T17:52:39;102375.03;;;7.41
29701;BMP280;57917;51.380;-0.176;2022-11-30T17:58:26;102384.16;;;7.45
29701;BMP280;57917;51.380;-0.176;2022-11-30T18:04:38;102408.44;;;7.53
29701;BMP280;57917;51.380;-0.176;2022-11-30T18:10:40;102404.63;;;7.43
29701;BMP280;57917;51.380;-0.176;2022-11-30T18:16:35;102396.97;;;7.35
29701;BMP280;57917;51.380;-0.176;2022-11-30T18:22:23;102395.53;;;7.32
29701;BMP280;57917;51.380;-0.176;2022-11-30T18:28:10;102399.00;;;7.26
29701;BMP280;57917;51.380;-0.176;2022-11-30T18:34:05;102402.03;;;7.30
29701;BMP280;57917;51.380;-0.176;2022-11-30T18:39:52;102409.94;;;7.23
29701;BMP280;57917;51.380;-0.176;2022-11-30T18:45:38;102398.69;;;6.97
29701;BMP280;57917;51.380;-0.176;2022-11-30T18:51:27;102412.66;;;6.84
29701;BMP280;57917;51.380;-0.176;2022-11-30T18:57:14;102417.94;;;6.84
29701;BMP280;57917;51.380;-0.176;2022-11-30T19:03:02;102411.50;;;6.61
29701;BMP280;57917;51.380;-0.176;2022-11-30T19:08:50;102422.41;;;6.58
29701;BMP280;57917;51.380;-0.176;2022-11-30T19:14:37;102414.28;;;6.59
29701;BMP280;57917;51.380;-0.176;2022-11-30T19:20:24;102411.28;;;6.69
29701;BMP280;57917;51.380;-0.176;2022-11-30T19:26:11;102410.06;;;6.58
29701;BMP280;57917;51.380;-0.176;2022-11-30T19:32:02;102414.69;;;6.43
29701;BMP280;57917;51.380;-0.176;2022-11-30T19:37:52;102420.56;;;6.52
29701;BMP280;57917;51.380;-0.176;2022-11-30T19:43:40;102423.59;;;6.48
29701;BMP280;57917;51.380;-0.176;2022-11-30T19:49:30;102424.00;;;6.52
29701;BMP280;57917;51.380;-0.176;2022-11-30T19:55:17;102426.66;;;6.52
29701;BMP280;57917;51.380;-0.176;2022-11-30T20:01:04;102441.84;;;6.50
29701;BMP280;57917;51.380;-0.176;2022-11-30T20:06:52;102427.06;;;6.49
29701;BMP280;57917;51.380;-0.176;2022-11-30T20:12:50;102420.19;;;6.48
29701;BMP280;57917;51.380;-0.176;2022-11-30T20:18:37;102436.72;;;6.42
29701;BMP280;57917;51.380;-0.176;2022-11-30T20:24:35;102438.56;;;6.22
29701;BMP280;57917;51.380;-0.176;2022-11-30T20:30:28;102438.97;;;6.32
29701;BMP280;57917;51.380;-0.176;2022-11-30T20:36:18;102451.31;;;6.38
29701;BMP280;57917;51.380;-0.176;2022-11-30T20:42:09;102444.25;;;6.38
29701;BMP280;57917;51.380;-0.176;2022-11-30T20:47:56;102460.63;;;6.40
29701;BMP280;57917;51.380;-0.176;2022-11-30T20:53:49;102469.75;;;6.38
29701;BMP280;57917;51.380;-0.176;2022-11-30T21:00:59;102480.41;;;6.17
29701;BMP280;57917;51.380;-0.176;2022-11-30T21:07:36;102475.53;;;6.07
29701;BMP280;57917;51.380;-0.176;2022-11-30T21:30:05;102481.25;;;6.30
29701;BMP280;57917;51.380;-0.176;2022-11-30T21:36:09;102495.25;;;6.44
29701;BMP280;57917;51.380;-0.176;2022-11-30T21:42:32;102518.16;;;6.63
29701;BMP280;57917;51.380;-0.176;2022-11-30T22:03:31;102548.16;;;7.08
29701;BMP280;57917;51.380;-0.176;2022-11-30T22:09:20;102543.69;;;7.28
29701;BMP280;57917;51.380;-0.176;2022-11-30T22:30:53;102544.50;;;7.02
29701;BMP280;57917;51.380;-0.176;2022-11-30T22:44:32;102544.50;;;7.02
29701;BMP280;57917;51.380;-0.176;2022-11-30T22:50:20;102548.19;;;7.01
29701;BMP280;57917;51.380;-0.176;2022-11-30T22:56:38;102546.53;;;7.00
29701;BMP280;57917;51.380;-0.176;2022-11-30T23:02:50;102556.66;;;7.16
29701;BMP280;57917;51.380;-0.176;2022-11-30T23:15:41;102551.19;;;7.37
29701;BMP280;57917;51.380;-0.176;2022-11-30T23:21:30;102544.50;;;7.22
29701;BMP280;57917;51.380;-0.176;2022-11-30T23:27:26;102549.38;;;7.12
29701;BMP280;57917;51.380;-0.176;2022-11-30T23:33:17;102549.78;;;7.02
29701;BMP280;57917;51.380;-0.176;2022-11-30T23:39:12;102553.66;;;7.00
29701;BMP280;57917;51.380;-0.176;2022-11-30T23:45:04;102560.13;;;7.10
29701;BMP280;57917;51.380;-0.176;2022-11-30T23:50:53;102556.06;;;7.08
29701;BMP280;57917;51.380;-0.176;2022-11-30T23:56:41;102560.09;;;7.04
